Salem, New Jersey
Current Conditions -  °F | °C
As of 9:51 AM on Thursday 25 Dec 2014 (Local Time) from KILG Reporting Station
Clear Clear  
Wind Chill: 10°   Ceiling: Unl
Heat Index: 10°   Visibility: 10mi
Dew Point:   Wind: 16mph
Humidity: 52%   Direction: 290°WNW
Pressure: 29.85"   Gusts: 26mph
Location:  39.57°N, 75.47°W
Report Text: KILG 251451Z 29014G23KT 10SM CLR 10/01 A2985 RMK AO2 PK WND 28029/1432 PRESRR SLP109 60000 T01000006 53047
Loading
Personal Weather Stations






























Interactive Weather Map New forecast layout! Learn more

10-Day Weather Forecast

Advertisements
Track Severe Weather on mobile